createdAt,value
2022-11-08T00:00:19.929Z,100.00
2022-11-08T00:02:47.693Z,100.00
2022-11-08T00:05:32.978Z,100.00
2022-11-08T00:08:21.597Z,100.00
2022-11-08T00:11:06.784Z,100.00
2022-11-08T00:13:51.830Z,100.00
2022-11-08T00:16:20.836Z,100.00
2022-11-08T00:18:48.484Z,100.00
2022-11-08T00:21:16.175Z,100.00
2022-11-08T00:23:44.792Z,100.00
2022-11-08T00:26:12.476Z,100.00
2022-11-08T00:28:40.138Z,100.00
2022-11-08T00:31:08.386Z,100.00
2022-11-08T00:33:37.480Z,100.00
2022-11-08T00:36:06.082Z,100.00
2022-11-08T00:38:33.794Z,100.00
2022-11-08T00:41:01.482Z,100.00
2022-11-08T00:43:29.141Z,100.00
2022-11-08T00:45:56.782Z,100.00
2022-11-08T00:48:24.653Z,100.00
2022-11-08T00:50:53.818Z,100.00
2022-11-08T00:53:21.462Z,100.00
2022-11-08T00:55:49.140Z,100.00
2022-11-08T00:58:17.169Z,100.00
2022-11-08T01:00:45.273Z,100.00
2022-11-08T01:03:21.817Z,100.00
2022-11-08T01:05:50.069Z,100.00
2022-11-08T01:08:20.840Z,100.00
2022-11-08T01:10:50.118Z,100.00
2022-11-08T01:13:18.859Z,100.00
2022-11-08T01:15:47.222Z,100.00
2022-11-08T01:18:19.841Z,100.00
2022-11-08T01:20:49.932Z,100.00
2022-11-08T01:23:20.404Z,100.00
2022-11-08T01:25:49.520Z,100.00
2022-11-08T01:28:18.411Z,100.00
2022-11-08T01:30:46.839Z,100.00
2022-11-08T01:33:15.773Z,100.00
2022-11-08T01:35:46.283Z,100.00
2022-11-08T01:38:14.570Z,100.00
2022-11-08T01:40:48.336Z,100.00
2022-11-08T01:43:41.235Z,100.00
2022-11-08T01:46:33.743Z,100.00
2022-11-08T01:49:21.768Z,100.00
2022-11-08T01:51:56.013Z,100.00
2022-11-08T01:54:29.039Z,100.00
2022-11-08T01:57:01.197Z,100.00
2022-11-08T01:59:29.649Z,100.00
2022-11-08T02:01:57.973Z,100.00
2022-11-08T02:04:26.027Z,100.00
2022-11-08T02:06:54.601Z,100.00
2022-11-08T02:09:22.276Z,100.00
2022-11-08T02:11:51.017Z,100.00
2022-11-08T02:14:20.270Z,100.00
2022-11-08T02:16:48.117Z,100.00
2022-11-08T02:19:25.224Z,100.00
2022-11-08T02:21:57.178Z,100.00
2022-11-08T02:24:26.231Z,100.00
2022-11-08T02:26:56.180Z,100.00
2022-11-08T02:29:27.159Z,100.00
2022-11-08T02:31:55.414Z,100.00
2022-11-08T02:34:27.013Z,100.00
2022-11-08T02:36:56.639Z,100.00
2022-11-08T02:39:26.098Z,100.00
2022-11-08T02:41:53.823Z,100.00
2022-11-08T02:44:21.550Z,100.00
2022-11-08T02:46:49.179Z,100.00
2022-11-08T02:49:16.892Z,100.00
2022-11-08T02:51:44.557Z,100.00
2022-11-08T02:54:12.389Z,100.00
2022-11-08T02:56:41.452Z,100.00
2022-11-08T02:59:09.157Z,100.00
2022-11-08T03:01:36.961Z,100.00
2022-11-08T03:04:04.992Z,100.00
2022-11-08T03:06:32.780Z,100.00
2022-11-08T03:09:00.695Z,100.00
2022-11-08T03:11:28.929Z,100.00
2022-11-08T03:13:58.175Z,100.00
2022-11-08T03:16:25.923Z,100.00
2022-11-08T03:18:54.817Z,100.00
2022-11-08T03:21:24.955Z,100.00
2022-11-08T03:23:55.081Z,100.00
2022-11-08T03:26:22.789Z,100.00
2022-11-08T03:28:50.514Z,100.00
2022-11-08T03:31:21.720Z,100.00
2022-11-08T03:33:49.434Z,100.00
2022-11-08T03:36:17.237Z,100.00
2022-11-08T03:38:44.972Z,100.00
2022-11-08T03:41:12.704Z,100.00
2022-11-08T03:43:40.482Z,100.00
2022-11-08T03:46:08.430Z,100.00
2022-11-08T03:48:37.489Z,100.00
2022-11-08T03:51:05.448Z,100.00
2022-11-08T03:53:33.142Z,100.00
2022-11-08T03:56:01.022Z,100.00
2022-11-08T03:58:29.092Z,100.00
2022-11-08T04:00:58.191Z,100.00
2022-11-08T04:03:26.044Z,100.00
2022-11-08T04:05:56.084Z,100.00
2022-11-08T04:08:23.779Z,100.00
2022-11-08T04:10:55.032Z,100.00
2022-11-08T04:13:40.552Z,100.00
2022-11-08T04:16:11.794Z,100.00
2022-11-08T04:19:00.451Z,100.00
2022-11-08T04:21:29.524Z,100.00
2022-11-08T04:23:57.212Z,100.00
2022-11-08T04:26:24.959Z,100.00
2022-11-08T04:28:52.668Z,100.00
2022-11-08T04:31:21.507Z,100.00
2022-11-08T04:33:49.238Z,100.00
2022-11-08T04:36:17.901Z,100.00
2022-11-08T04:38:49.225Z,100.00
2022-11-08T04:41:18.670Z,100.00
2022-11-08T04:43:46.574Z,100.00
2022-11-08T04:46:15.798Z,100.00
2022-11-08T04:48:44.004Z,100.00
2022-11-08T04:51:14.250Z,100.00
2022-11-08T04:53:42.338Z,100.00
2022-11-08T04:56:13.370Z,100.00
2022-11-08T04:58:42.701Z,100.00
2022-11-08T05:01:12.282Z,100.00
2022-11-08T05:03:40.065Z,100.00
2022-11-08T05:06:11.141Z,100.00
2022-11-08T05:08:39.234Z,100.00
2022-11-08T05:11:12.944Z,100.00
2022-11-08T05:13:41.828Z,100.00
2022-11-08T05:16:12.988Z,100.00
2022-11-08T05:18:42.133Z,100.00
2022-11-08T05:21:29.524Z,100.00
2022-11-08T05:23:58.151Z,100.00
2022-11-08T05:26:28.287Z,100.00
2022-11-08T05:28:56.153Z,100.00
2022-11-08T05:31:24.955Z,100.00
2022-11-08T05:33:52.914Z,100.00
2022-11-08T05:36:20.975Z,100.00
2022-11-08T05:38:48.741Z,100.00
2022-11-08T05:41:18.838Z,100.00
2022-11-08T05:43:49.559Z,100.00
2022-11-08T05:46:18.272Z,100.00
2022-11-08T05:48:47.784Z,100.00
2022-11-08T05:51:17.447Z,100.00
2022-11-08T05:53:47.135Z,100.00
2022-11-08T05:56:15.136Z,100.00
2022-11-08T05:58:42.825Z,100.00
2022-11-08T06:01:14.486Z,100.00
2022-11-08T06:03:42.466Z,100.00
2022-11-08T06:06:12.548Z,100.00
2022-11-08T06:08:41.877Z,100.00
2022-11-08T06:11:13.503Z,100.00
2022-11-08T06:13:42.055Z,100.00
2022-11-08T06:16:13.200Z,100.00
2022-11-08T06:18:40.957Z,100.00
2022-11-08T06:21:12.006Z,100.00
2022-11-08T06:23:40.911Z,100.00
2022-11-08T06:26:09.191Z,100.00
2022-11-08T06:28:37.079Z,100.00
2022-11-08T06:31:05.812Z,100.00
2022-11-08T06:33:35.165Z,100.00
2022-11-08T06:36:03.016Z,100.00
2022-11-08T06:38:30.782Z,100.00
2022-11-08T06:41:00.228Z,100.00
2022-11-08T06:43:29.986Z,100.00
2022-11-08T06:46:01.288Z,100.00
2022-11-08T06:48:35.087Z,100.00
2022-11-08T06:51:05.344Z,100.00
2022-11-08T06:53:33.748Z,100.00
2022-11-08T06:56:01.845Z,100.00
2022-11-08T06:58:29.759Z,100.00
2022-11-08T07:00:57.501Z,100.00
2022-11-08T07:03:25.284Z,100.00
2022-11-08T07:05:52.913Z,100.00
2022-11-08T07:08:23.879Z,100.00
2022-11-08T07:10:52.126Z,100.00
2022-11-08T07:13:20.254Z,100.00
2022-11-08T07:15:48.501Z,100.00
2022-11-08T07:18:18.082Z,100.00
2022-11-08T07:20:45.913Z,100.00
2022-11-08T07:23:13.669Z,100.00
2022-11-08T07:25:42.930Z,100.00
2022-11-08T07:28:17.474Z,100.00
2022-11-08T07:30:45.788Z,100.00
2022-11-08T07:33:13.855Z,100.00
2022-11-08T07:35:41.674Z,100.00
2022-11-08T07:38:09.430Z,100.00
2022-11-08T07:40:38.826Z,100.00
2022-11-08T07:43:12.728Z,100.00
2022-11-08T07:45:41.129Z,100.00
2022-11-08T07:48:12.595Z,100.00
2022-11-08T07:50:41.725Z,100.00
2022-11-08T07:53:09.977Z,100.00
2022-11-08T07:55:38.158Z,100.00
2022-11-08T07:58:06.573Z,100.00
2022-11-08T08:00:37.408Z,100.00
2022-11-08T08:03:07.555Z,100.00
2022-11-08T08:05:37.239Z,100.00
2022-11-08T08:08:05.785Z,100.00
2022-11-08T08:10:33.809Z,100.00
2022-11-08T08:13:02.197Z,100.00
2022-11-08T08:15:29.907Z,100.00
2022-11-08T08:18:00.803Z,100.00
2022-11-08T08:20:28.665Z,100.00
2022-11-08T08:22:56.349Z,100.00
2022-11-08T08:25:24.483Z,100.00
2022-11-08T08:27:56.620Z,100.00
2022-11-08T08:30:25.468Z,100.00
2022-11-08T08:33:14.631Z,100.00
2022-11-08T08:35:44.046Z,100.00
2022-11-08T08:38:12.751Z,100.00
2022-11-08T08:40:41.221Z,100.00
2022-11-08T08:43:09.054Z,100.00
2022-11-08T08:45:37.750Z,100.00
2022-11-08T08:48:05.934Z,100.00
2022-11-08T08:50:34.594Z,100.00
2022-11-08T08:53:06.157Z,100.00
2022-11-08T08:55:37.359Z,100.00
2022-11-08T08:58:05.739Z,100.00
2022-11-08T09:03:21.683Z,100.00
2022-11-08T09:05:49.655Z,100.00
2022-11-08T09:08:18.760Z,100.00
2022-11-08T09:10:47.108Z,100.00
2022-11-08T09:13:14.980Z,100.00
2022-11-08T09:15:42.841Z,100.00
2022-11-08T09:18:10.643Z,100.00
2022-11-08T09:20:38.314Z,100.00
2022-11-08T09:23:06.028Z,100.00
2022-11-08T09:25:35.109Z,100.00
2022-11-08T09:28:02.797Z,100.00
2022-11-08T09:30:30.581Z,100.00
2022-11-08T09:33:01.388Z,100.00
2022-11-08T09:35:30.610Z,100.00
2022-11-08T09:37:58.637Z,100.00
2022-11-08T09:40:31.623Z,100.00
2022-11-08T09:43:24.683Z,100.00
2022-11-08T09:45:55.944Z,100.00
2022-11-08T09:48:27.787Z,100.00
2022-11-08T09:50:58.417Z,100.00
2022-11-08T09:53:35.345Z,100.00
2022-11-08T09:56:08.908Z,100.00
2022-11-08T09:58:42.257Z,100.00
2022-11-08T10:01:12.971Z,100.00
2022-11-08T10:03:45.546Z,100.00
2022-11-08T10:06:34.369Z,100.00
2022-11-08T10:09:14.906Z,100.00
2022-11-08T10:11:58.825Z,100.00
2022-11-08T10:14:50.579Z,100.00
2022-11-08T10:17:42.502Z,100.00
2022-11-08T10:20:19.878Z,100.00
2022-11-08T10:22:53.491Z,100.00
2022-11-08T10:25:25.553Z,100.00
2022-11-08T10:27:56.939Z,100.00
2022-11-08T10:30:35.440Z,100.00
2022-11-08T10:33:03.825Z,100.00
2022-11-08T10:35:37.556Z,100.00
2022-11-08T10:38:16.539Z,100.00
2022-11-08T10:40:51.948Z,100.00
2022-11-08T10:43:25.815Z,100.00
2022-11-08T10:45:54.941Z,100.00
2022-11-08T10:48:22.813Z,100.00
2022-11-08T10:50:52.570Z,100.00
2022-11-08T10:53:25.453Z,100.00
2022-11-08T10:55:59.729Z,100.00
2022-11-08T10:58:34.352Z,100.00
2022-11-08T11:01:06.834Z,100.00
2022-11-08T11:03:34.719Z,100.00
2022-11-08T11:06:04.182Z,100.00
2022-11-08T11:08:32.547Z,100.00
2022-11-08T11:11:24.981Z,100.00
2022-11-08T11:14:18.191Z,100.00
2022-11-08T11:16:56.599Z,100.00
2022-11-08T11:19:25.032Z,100.00
2022-11-08T11:21:57.579Z,100.00
2022-11-08T11:24:25.999Z,100.00
2022-11-08T11:27:06.276Z,100.00
2022-11-08T11:29:35.513Z,99.53
2022-11-08T11:32:26.542Z,95.56
2022-11-08T11:34:57.460Z,92.88
2022-11-08T11:37:37.200Z,97.39
2022-11-08T11:40:14.758Z,92.69
2022-11-08T11:42:48.776Z,89.09
2022-11-08T11:45:20.494Z,90.53
2022-11-08T11:47:53.385Z,89.24
2022-11-08T11:50:29.586Z,90.21
2022-11-08T11:52:58.912Z,97.88
2022-11-08T11:55:39.923Z,100.00
2022-11-08T11:58:20.072Z,99.97
2022-11-08T12:00:55.568Z,100.00
2022-11-08T12:03:39.897Z,100.00
2022-11-08T12:06:25.617Z,100.00
2022-11-08T12:09:07.539Z,100.00
2022-11-08T12:11:49.688Z,100.00
2022-11-08T12:14:30.514Z,100.00
2022-11-08T12:17:25.438Z,100.00
2022-11-08T12:20:10.498Z,98.78
2022-11-08T12:22:53.457Z,99.36
2022-11-08T12:25:27.541Z,100.00
2022-11-08T12:28:02.290Z,100.00
2022-11-08T12:30:38.534Z,100.00
2022-11-08T12:33:22.304Z,100.00
2022-11-08T12:36:10.740Z,100.00
2022-11-08T12:38:49.061Z,100.00
2022-11-08T12:41:24.936Z,100.00
2022-11-08T12:44:12.399Z,100.00
2022-11-08T12:46:49.955Z,100.00
2022-11-08T12:49:27.940Z,100.00
2022-11-08T12:52:13.056Z,100.00
2022-11-08T12:54:44.670Z,100.00
2022-11-08T12:57:16.331Z,100.00
2022-11-08T12:59:46.604Z,100.00
2022-11-08T13:02:19.489Z,100.00
2022-11-08T13:04:56.062Z,100.00
2022-11-08T13:07:34.105Z,100.00
2022-11-08T13:10:08.787Z,100.00
2022-11-08T13:12:47.801Z,100.00
2022-11-08T13:15:19.210Z,100.00
2022-11-08T13:18:26.135Z,100.00
2022-11-08T13:20:53.855Z,100.00
2022-11-08T13:23:30.304Z,100.00
2022-11-08T13:26:13.773Z,100.00
2022-11-08T13:28:43.265Z,100.00
2022-11-08T13:31:25.591Z,100.00
2022-11-08T13:34:27.171Z,100.00
2022-11-08T13:37:06.249Z,100.00
2022-11-08T13:40:04.139Z,100.00
2022-11-08T13:42:40.634Z,100.00
2022-11-08T13:45:28.419Z,100.00
2022-11-08T13:47:58.584Z,100.00
2022-11-08T13:50:54.150Z,100.00
2022-11-08T13:53:42.428Z,100.00
2022-11-08T13:56:35.351Z,100.00
2022-11-08T13:59:03.064Z,100.00
2022-11-08T14:01:58.762Z,100.00
2022-11-08T14:04:28.672Z,100.00
2022-11-08T14:07:07.363Z,100.00
2022-11-08T14:09:44.517Z,100.00
2022-11-08T14:12:19.042Z,100.00
2022-11-08T14:14:57.644Z,100.00
2022-11-08T14:17:40.667Z,100.00
2022-11-08T14:20:27.630Z,100.00
2022-11-08T14:22:56.010Z,100.00
2022-11-08T14:25:28.934Z,100.00
2022-11-08T14:27:58.809Z,100.00
2022-11-08T14:30:27.436Z,100.00
2022-11-08T14:33:15.413Z,100.00
2022-11-08T14:35:43.345Z,100.00
2022-11-08T14:38:14.870Z,100.00
2022-11-08T14:40:49.850Z,100.00
2022-11-08T14:43:20.132Z,100.00
2022-11-08T14:45:48.515Z,100.00
2022-11-08T14:48:22.396Z,100.00
2022-11-08T14:50:50.146Z,100.00
2022-11-08T14:53:27.164Z,100.00
2022-11-08T14:56:20.783Z,100.00
2022-11-08T14:58:49.982Z,100.00
2022-11-08T15:01:20.372Z,100.00
2022-11-08T15:03:52.915Z,100.00
2022-11-08T15:06:30.484Z,100.00
2022-11-08T15:09:08.129Z,100.00
2022-11-08T15:11:40.989Z,100.00
2022-11-08T15:14:12.735Z,100.00
2022-11-08T15:16:42.471Z,100.00
2022-11-08T15:19:27.678Z,100.00
2022-11-08T15:21:55.403Z,100.00
2022-11-08T15:24:36.715Z,100.00
2022-11-08T15:27:16.574Z,100.00
2022-11-08T15:29:52.271Z,100.00
2022-11-08T15:32:22.319Z,100.00
2022-11-08T15:34:54.053Z,100.00
2022-11-08T15:37:22.660Z,100.00
2022-11-08T15:39:52.058Z,100.00
2022-11-08T15:42:22.526Z,100.00
2022-11-08T15:45:01.388Z,100.00
2022-11-08T15:47:46.081Z,100.00
2022-11-08T15:50:16.880Z,100.00
2022-11-08T15:52:45.836Z,100.00
2022-11-08T15:55:15.754Z,100.00
2022-11-08T15:57:46.728Z,100.00
2022-11-08T16:00:22.133Z,100.00
2022-11-08T16:02:55.865Z,100.00
2022-11-08T16:05:25.160Z,100.00
2022-11-08T16:07:53.887Z,100.00
2022-11-08T16:10:28.017Z,100.00
2022-11-08T16:12:58.754Z,100.00
2022-11-08T16:15:27.476Z,100.00
2022-11-08T16:17:55.333Z,100.00
2022-11-08T16:20:26.931Z,100.00
2022-11-08T16:22:54.990Z,100.00
2022-11-08T16:25:23.306Z,100.00
2022-11-08T16:27:54.340Z,100.00
2022-11-08T16:30:23.458Z,100.00
2022-11-08T16:32:51.668Z,100.00
2022-11-08T16:35:20.171Z,100.00
2022-11-08T16:37:48.413Z,100.00
2022-11-08T16:40:18.438Z,100.00
2022-11-08T16:42:46.266Z,100.00
2022-11-08T16:45:14.380Z,100.00
2022-11-08T16:47:46.538Z,100.00
2022-11-08T16:50:17.358Z,100.00
2022-11-08T16:52:45.214Z,100.00
2022-11-08T16:55:17.615Z,100.00
2022-11-08T16:57:46.667Z,100.00
2022-11-08T17:00:16.377Z,100.00
2022-11-08T17:02:48.914Z,100.00
2022-11-08T17:05:19.530Z,100.00
2022-11-08T17:07:47.253Z,100.00
2022-11-08T17:10:20.905Z,100.00
2022-11-08T17:12:48.962Z,100.00
2022-11-08T17:15:18.133Z,100.00
2022-11-08T17:17:47.961Z,100.00
2022-11-08T17:20:17.401Z,100.00
2022-11-08T17:22:46.639Z,100.00
2022-11-08T17:25:16.817Z,100.00
2022-11-08T17:27:45.270Z,100.00
2022-11-08T17:30:15.816Z,100.00
2022-11-08T17:32:44.253Z,100.00
2022-11-08T17:35:14.681Z,100.00
2022-11-08T17:37:42.535Z,100.00
2022-11-08T17:40:11.213Z,100.00
2022-11-08T17:42:40.012Z,100.00
2022-11-08T17:45:08.927Z,100.00
2022-11-08T17:47:39.131Z,100.00
2022-11-08T17:50:09.278Z,100.00
2022-11-08T17:52:38.613Z,100.00
2022-11-08T17:55:07.333Z,100.00
2022-11-08T17:57:35.140Z,100.00
2022-11-08T18:00:03.768Z,100.00
2022-11-08T18:02:40.260Z,100.00
2022-11-08T18:05:09.300Z,100.00
2022-11-08T18:07:40.801Z,100.00
2022-11-08T18:10:09.936Z,100.00
2022-11-08T18:12:37.900Z,100.00
2022-11-08T18:15:06.570Z,100.00
2022-11-08T18:17:34.315Z,100.00
2022-11-08T18:20:02.249Z,100.00
2022-11-08T18:22:29.994Z,100.00
2022-11-08T18:24:59.071Z,100.00
2022-11-08T18:27:26.992Z,100.00
2022-11-08T18:29:54.665Z,100.00
2022-11-08T18:32:22.417Z,100.00
2022-11-08T18:34:50.163Z,100.00
2022-11-08T18:37:18.012Z,100.00
2022-11-08T18:39:45.712Z,100.00
2022-11-08T18:42:14.793Z,100.00
2022-11-08T18:44:42.536Z,100.00
2022-11-08T18:47:10.322Z,100.00
2022-11-08T18:49:38.093Z,100.00
2022-11-08T18:52:06.167Z,100.00
2022-11-08T18:54:33.990Z,100.00
2022-11-08T18:57:01.678Z,100.00
2022-11-08T18:59:30.836Z,100.00
2022-11-08T19:01:58.814Z,100.00
2022-11-08T19:04:27.888Z,100.00
2022-11-08T19:06:55.707Z,100.00
2022-11-08T19:09:23.532Z,100.00
2022-11-08T19:11:51.414Z,100.00
2022-11-08T19:14:19.635Z,100.00
2022-11-08T19:16:52.042Z,100.00
2022-11-08T19:19:19.853Z,100.00
2022-11-08T19:21:47.600Z,100.00
2022-11-08T19:24:15.483Z,100.00
2022-11-08T19:26:43.329Z,100.00
2022-11-08T19:29:12.315Z,100.00
2022-11-08T19:31:40.038Z,100.00
2022-11-08T19:34:09.920Z,100.00
2022-11-08T19:36:43.126Z,100.00
2022-11-08T19:39:11.524Z,100.00
2022-11-08T19:41:40.041Z,100.00
2022-11-08T19:44:08.288Z,100.00
2022-11-08T19:46:36.477Z,100.00
2022-11-08T19:49:05.721Z,100.00
2022-11-08T19:51:35.628Z,100.00
2022-11-08T19:54:06.004Z,100.00
2022-11-08T19:57:04.193Z,100.00
2022-11-08T19:59:23.468Z,100.00
2022-11-08T20:01:51.409Z,100.00
2022-11-08T20:04:19.500Z,100.00
2022-11-08T20:06:48.664Z,100.00
2022-11-08T20:09:16.617Z,100.00
2022-11-08T20:11:44.796Z,100.00
2022-11-08T20:14:14.015Z,100.00
2022-11-08T20:16:47.824Z,100.00
2022-11-08T20:19:18.932Z,100.00
2022-11-08T20:21:48.169Z,100.00
2022-11-08T20:24:16.406Z,100.00
2022-11-08T20:26:45.088Z,100.00
2022-11-08T20:29:14.440Z,100.00
2022-11-08T20:31:42.762Z,100.00
2022-11-08T20:34:12.775Z,100.00
2022-11-08T20:36:41.540Z,100.00
2022-11-08T20:39:11.489Z,100.00
2022-11-08T20:41:40.936Z,100.00
2022-11-08T20:44:09.825Z,100.00
2022-11-08T20:46:38.577Z,100.00
2022-11-08T20:49:07.015Z,100.00
2022-11-08T20:51:36.836Z,100.00
2022-11-08T20:54:05.125Z,100.00
2022-11-08T20:56:34.217Z,100.00
2022-11-08T20:59:02.992Z,100.00
2022-11-08T21:01:32.704Z,100.00
2022-11-08T21:04:00.964Z,100.00
2022-11-08T21:06:32.998Z,100.00
2022-11-08T21:09:20.855Z,100.00
2022-11-08T21:11:52.359Z,100.00
2022-11-08T21:14:20.479Z,100.00
2022-11-08T21:17:15.113Z,100.00
2022-11-08T21:19:35.778Z,100.00
2022-11-08T21:22:15.846Z,100.00
2022-11-08T21:24:48.613Z,100.00
2022-11-08T21:27:18.135Z,100.00
2022-11-08T21:38:28.472Z,100.00
2022-11-08T21:40:56.496Z,100.00
2022-11-08T21:43:25.551Z,100.00
2022-11-08T21:45:53.308Z,100.00
2022-11-08T21:48:21.601Z,100.00
2022-11-08T21:50:49.486Z,100.00
2022-11-08T21:53:17.250Z,100.00
2022-11-08T21:55:46.026Z,100.00
2022-11-08T21:58:13.759Z,100.00
2022-11-08T22:00:43.032Z,100.00
2022-11-08T22:03:12.063Z,100.00
2022-11-08T22:05:39.783Z,100.00
2022-11-08T22:08:07.461Z,100.00
2022-11-08T22:11:00.805Z,100.00
2022-11-08T22:13:28.444Z,100.00
2022-11-08T22:15:57.568Z,100.00
2022-11-08T22:18:50.252Z,100.00
2022-11-08T22:21:45.264Z,100.00
2022-11-08T22:24:14.889Z,100.00
2022-11-08T22:26:42.926Z,100.00
2022-11-08T22:29:10.993Z,100.00
2022-11-08T22:31:42.439Z,100.00
2022-11-08T22:34:11.037Z,100.00
2022-11-08T22:36:44.888Z,100.00
2022-11-08T22:39:14.385Z,100.00
2022-11-08T22:41:42.549Z,100.00
2022-11-08T22:44:12.338Z,100.00
2022-11-08T22:46:42.604Z,100.00
2022-11-08T22:49:10.814Z,100.00
2022-11-08T22:51:39.463Z,100.00
2022-11-08T22:54:07.570Z,100.00
2022-11-08T22:56:35.933Z,100.00
2022-11-08T22:59:04.287Z,100.00
2022-11-08T23:01:32.115Z,100.00
2022-11-08T23:04:05.635Z,100.00
2022-11-08T23:06:33.440Z,100.00
2022-11-08T23:09:01.218Z,100.00
2022-11-08T23:11:48.211Z,100.00
2022-11-08T23:14:37.128Z,100.00
2022-11-08T23:17:07.493Z,100.00
2022-11-08T23:19:53.862Z,100.00
2022-11-08T23:22:39.480Z,100.00
2022-11-08T23:25:08.060Z,100.00
2022-11-08T23:27:53.200Z,100.00
2022-11-08T23:30:38.283Z,100.00
2022-11-08T23:33:06.798Z,100.00
2022-11-08T23:35:36.278Z,100.00
2022-11-08T23:38:04.266Z,100.00
2022-11-08T23:40:49.465Z,100.00
2022-11-08T23:43:36.082Z,100.00
2022-11-08T23:46:08.759Z,100.00
2022-11-08T23:48:37.228Z,100.00
2022-11-08T23:51:10.570Z,100.00
2022-11-08T23:53:39.821Z,100.00
2022-11-08T23:56:08.202Z,100.00
2022-11-08T23:58:35.953Z,100.00
